Time;durP1;ratioP1;P1;durP2;ratioP2;P2;SDS_P1;SDS_P2;PMS_P1;PMS_P2;Temp;Humidity;BMP_temperature;BMP_pressure;BME280_temperature;BME280_humidity;BME280_pressure;Samples;Min_cycle;Max_cycle;Signal;HPM_P1;HPM_P2
2023/05/29 00:10:27;;;;;;;0.00;0.00;;;;;;;;;;6103388;23;20129;-77
2023/05/29 00:13:13;;;;;;;0.10;0.10;;;;;;;;;;6106034;23;20344;-78
2023/05/29 00:16:00;;;;;;;0.10;0.10;;;;;;;;;;6100471;23;20042;-79
2023/05/29 00:18:46;;;;;;;0.00;0.00;;;;;;;;;;6100940;23;20117;-78
2023/05/29 00:21:32;;;;;;;0.10;0.10;;;;;;;;;;6101261;23;20024;-77
2023/05/29 00:24:18;;;;;;;0.10;0.10;;;;;;;;;;6102504;23;20465;-78
2023/05/29 00:27:03;;;;;;;0.03;0.03;;;;;;;;;;6101728;23;20038;-78
2023/05/29 00:29:49;;;;;;;0.10;0.10;;;;;;;;;;6100577;23;20535;-75
2023/05/29 00:32:35;;;;;;;0.10;0.10;;;;;;;;;;6102546;23;20133;-77
2023/05/29 00:35:21;;;;;;;0.10;0.10;;;;;;;;;;6101975;23;20014;-78
2023/05/29 00:38:07;;;;;;;0.10;0.10;;;;;;;;;;6101679;23;20018;-77
2023/05/29 00:40:53;;;;;;;0.10;0.10;;;;;;;;;;6101321;23;20215;-76
2023/05/29 00:43:38;;;;;;;0.00;0.00;;;;;;;;;;6101247;23;20095;-77
2023/05/29 00:46:25;;;;;;;0.00;0.00;;;;;;;;;;6101182;23;20017;-79
2023/05/29 00:49:11;;;;;;;0.00;0.00;;;;;;;;;;6100805;23;20090;-77
2023/05/29 00:51:57;;;;;;;0.10;0.10;;;;;;;;;;6102002;23;20515;-78
2023/05/29 00:54:44;;;;;;;0.10;0.10;;;;;;;;;;6102199;23;20522;-78
2023/05/29 00:57:30;;;;;;;0.10;0.10;;;;;;;;;;6100476;23;20051;-78
2023/05/29 01:00:18;;;;;;;0.05;0.05;;;;;;;;;;6100144;23;20026;-78
2023/05/29 01:03:04;;;;;;;0.10;0.10;;;;;;;;;;6101519;23;20482;-78
2023/05/29 01:05:51;;;;;;;0.10;0.10;;;;;;;;;;6099366;23;20018;-79
2023/05/29 01:08:37;;;;;;;0.00;0.00;;;;;;;;;;6129340;23;20521;-78
2023/05/29 01:11:33;;;;;;;0.03;0.03;;;;;;;;;;6139561;23;20340;-77
2023/05/29 01:14:28;;;;;;;0.10;0.10;;;;;;;;;;6161835;23;20426;-77
2023/05/29 01:17:21;;;;;;;0.00;0.00;;;;;;;;;;6160073;23;20020;-79
2023/05/29 01:20:13;;;;;;;0.10;0.10;;;;;;;;;;6160733;23;20394;-79
2023/05/29 01:22:59;;;;;;;0.10;0.10;;;;;;;;;;6139448;23;20036;-79
2023/05/29 01:25:54;;;;;;;0.10;0.10;;;;;;;;;;6139513;23;20009;-78
2023/05/29 01:28:51;;;;;;;0.10;0.10;;;;;;;;;;6159117;23;20013;-79
2023/05/29 01:31:37;;;;;;;0.00;0.00;;;;;;;;;;6140278;23;20025;-78
2023/05/29 01:34:22;;;;;;;0.10;0.10;;;;;;;;;;6163296;23;20019;-78
2023/05/29 01:37:08;;;;;;;0.10;0.10;;;;;;;;;;6158839;23;20017;-78
2023/05/29 01:39:54;;;;;;;0.00;0.00;;;;;;;;;;6139341;23;20020;-77
2023/05/29 01:42:40;;;;;;;0.10;0.10;;;;;;;;;;6159320;23;20443;-78
2023/05/29 01:45:26;;;;;;;0.00;0.00;;;;;;;;;;6139603;23;20015;-79
2023/05/29 01:48:11;;;;;;;0.00;0.00;;;;;;;;;;6140611;23;20009;-78
2023/05/29 01:50:58;;;;;;;0.10;0.10;;;;;;;;;;6138795;23;20060;-78
2023/05/29 01:53:44;;;;;;;0.10;0.10;;;;;;;;;;6159919;23;20600;-79
2023/05/29 01:56:30;;;;;;;0.00;0.00;;;;;;;;;;6140020;23;20092;-78
2023/05/29 01:59:17;;;;;;;0.10;0.10;;;;;;;;;;6158264;23;20057;-78
2023/05/29 02:02:07;;;;;;;0.10;0.10;;;;;;;;;;6158611;23;20023;-78
2023/05/29 02:04:53;;;;;;;0.10;0.10;;;;;;;;;;6137401;23;20016;-79
2023/05/29 02:07:39;;;;;;;0.10;0.10;;;;;;;;;;6163061;23;20072;-76
2023/05/29 02:10:24;;;;;;;0.10;0.10;;;;;;;;;;6138236;23;20017;-78
2023/05/29 02:13:10;;;;;;;0.10;0.10;;;;;;;;;;6140804;23;20013;-78
2023/05/29 02:15:56;;;;;;;0.00;0.00;;;;;;;;;;6159764;23;20477;-79
2023/05/29 02:18:43;;;;;;;0.10;0.10;;;;;;;;;;6141430;23;20025;-78
2023/05/29 02:21:29;;;;;;;0.10;0.10;;;;;;;;;;6162252;23;20028;-78
2023/05/29 02:24:15;;;;;;;0.10;0.10;;;;;;;;;;6138898;23;20067;-78
2023/05/29 02:27:00;;;;;;;0.00;0.00;;;;;;;;;;6143585;23;20550;-78
2023/05/29 02:29:46;;;;;;;0.00;0.00;;;;;;;;;;6142733;23;20060;-78
2023/05/29 02:32:33;;;;;;;0.05;0.05;;;;;;;;;;6140482;23;20045;-77
2023/05/29 02:35:22;;;;;;;0.10;0.10;;;;;;;;;;6164827;23;20064;-77
2023/05/29 02:38:07;;;;;;;0.10;0.10;;;;;;;;;;6143202;23;20359;-77
2023/05/29 02:40:53;;;;;;;0.10;0.10;;;;;;;;;;6161225;23;20012;-79
2023/05/29 02:43:39;;;;;;;0.10;0.10;;;;;;;;;;6160852;23;20009;-78
2023/05/29 02:46:25;;;;;;;0.10;0.10;;;;;;;;;;6160442;23;20052;-78
2023/05/29 02:49:11;;;;;;;0.10;0.10;;;;;;;;;;6160631;23;20013;-78
2023/05/29 02:51:56;;;;;;;0.00;0.00;;;;;;;;;;6139046;23;20021;-78
2023/05/29 02:54:42;;;;;;;0.10;0.10;;;;;;;;;;6159930;23;20071;-79
2023/05/29 02:57:28;;;;;;;0.03;0.03;;;;;;;;;;6144732;23;20331;-79
2023/05/29 03:00:14;;;;;;;0.08;0.08;;;;;;;;;;6137195;23;20013;-77
2023/05/29 03:03:00;;;;;;;0.00;0.00;;;;;;;;;;6159046;23;20013;-79
2023/05/29 03:05:46;;;;;;;0.10;0.10;;;;;;;;;;6140472;23;20013;-79
2023/05/29 03:08:33;;;;;;;0.10;0.10;;;;;;;;;;6158635;23;20032;-79
2023/05/29 03:11:19;;;;;;;0.10;0.10;;;;;;;;;;6160490;23;20048;-77
2023/05/29 03:14:06;;;;;;;0.10;0.10;;;;;;;;;;6139672;23;20525;-79
2023/05/29 03:16:52;;;;;;;0.10;0.10;;;;;;;;;;6139556;23;20013;-77
2023/05/29 03:19:38;;;;;;;0.10;0.10;;;;;;;;;;6139995;23;20012;-79
2023/05/29 03:22:24;;;;;;;0.10;0.10;;;;;;;;;;6139112;23;20093;-78
2023/05/29 03:25:11;;;;;;;0.05;0.05;;;;;;;;;;6139775;23;20408;-79
2023/05/29 03:27:57;;;;;;;0.00;0.00;;;;;;;;;;6159002;23;20604;-78
2023/05/29 03:30:44;;;;;;;0.00;0.00;;;;;;;;;;6137326;23;20061;-78
2023/05/29 03:33:33;;;;;;;0.00;0.00;;;;;;;;;;6137139;23;20019;-79
2023/05/29 03:36:46;;;;;;;0.10;0.10;;;;;;;;;;6162092;23;20013;-79
2023/05/29 03:39:32;;;;;;;0.10;0.10;;;;;;;;;;6140193;23;20326;-78
2023/05/29 03:42:18;;;;;;;0.10;0.10;;;;;;;;;;6139450;23;20013;-78
2023/05/29 03:45:04;;;;;;;0.00;0.00;;;;;;;;;;6138980;23;20021;-78
2023/05/29 03:47:52;;;;;;;0.03;0.03;;;;;;;;;;6138090;23;20063;-78
2023/05/29 03:50:38;;;;;;;0.10;0.10;;;;;;;;;;6159640;23;20032;-78
2023/05/29 03:53:23;;;;;;;0.00;0.00;;;;;;;;;;6160386;23;20016;-77
2023/05/29 03:56:10;;;;;;;0.10;0.10;;;;;;;;;;6160724;23;20009;-78
2023/05/29 03:58:56;;;;;;;0.00;0.00;;;;;;;;;;6139621;23;20013;-78
2023/05/29 04:01:41;;;;;;;0.00;0.00;;;;;;;;;;6140675;23;20356;-78
2023/05/29 04:04:27;;;;;;;0.10;0.10;;;;;;;;;;6141351;23;20096;-78
2023/05/29 04:07:13;;;;;;;0.10;0.10;;;;;;;;;;6160711;23;20041;-78
2023/05/29 04:10:01;;;;;;;0.00;0.00;;;;;;;;;;6160156;23;20028;-78
2023/05/29 04:12:46;;;;;;;0.05;0.05;;;;;;;;;;6138988;23;20263;-78
2023/05/29 04:15:36;;;;;;;0.10;0.10;;;;;;;;;;6137664;23;20423;-78
2023/05/29 04:18:22;;;;;;;0.00;0.00;;;;;;;;;;6140712;23;20028;-79
2023/05/29 04:21:08;;;;;;;0.10;0.10;;;;;;;;;;6138957;23;20013;-78
2023/05/29 04:23:54;;;;;;;0.10;0.10;;;;;;;;;;6140092;23;20036;-79
2023/05/29 04:26:41;;;;;;;0.00;0.00;;;;;;;;;;6161248;23;20009;-78
2023/05/29 04:29:28;;;;;;;0.10;0.10;;;;;;;;;;6140796;23;20020;-79
2023/05/29 04:32:14;;;;;;;0.10;0.10;;;;;;;;;;6139708;23;20436;-78
2023/05/29 04:35:02;;;;;;;0.10;0.10;;;;;;;;;;6137541;23;20037;-78
2023/05/29 04:37:48;;;;;;;0.10;0.10;;;;;;;;;;6140366;23;20020;-78
2023/05/29 04:40:36;;;;;;;0.10;0.10;;;;;;;;;;6160468;23;20087;-79
2023/05/29 04:43:22;;;;;;;0.10;0.10;;;;;;;;;;6141075;23;20308;-78
2023/05/29 04:46:22;;;;;;;0.10;0.10;;;;;;;;;;6124382;23;20009;-78
2023/05/29 04:49:08;;;;;;;0.10;0.10;;;;;;;;;;6140087;23;20504;-78
2023/05/29 04:51:54;;;;;;;0.10;0.10;;;;;;;;;;6137972;23;20083;-79
2023/05/29 04:54:39;;;;;;;0.10;0.10;;;;;;;;;;6161439;23;20234;-79
2023/05/29 04:57:25;;;;;;;0.10;0.10;;;;;;;;;;6138373;23;20021;-79
2023/05/29 05:00:14;;;;;;;0.10;0.10;;;;;;;;;;6138824;23;20009;-79
2023/05/29 05:03:00;;;;;;;0.10;0.10;;;;;;;;;;6138753;23;20009;-78
2023/05/29 05:05:46;;;;;;;0.00;0.00;;;;;;;;;;6138833;23;20454;-79
2023/05/29 05:08:34;;;;;;;0.10;0.10;;;;;;;;;;6140518;23;20320;-78
2023/05/29 05:11:20;;;;;;;0.10;0.10;;;;;;;;;;6139646;23;20024;-78
2023/05/29 05:14:06;;;;;;;0.10;0.10;;;;;;;;;;6140271;23;20013;-77
2023/05/29 05:16:52;;;;;;;0.10;0.10;;;;;;;;;;6163249;23;20013;-77
2023/05/29 05:19:38;;;;;;;0.00;0.00;;;;;;;;;;6164137;23;20342;-78
2023/05/29 05:22:24;;;;;;;0.10;0.10;;;;;;;;;;6139542;23;20308;-78
2023/05/29 05:25:11;;;;;;;0.10;0.10;;;;;;;;;;6140111;23;20009;-79
2023/05/29 05:27:57;;;;;;;0.10;0.10;;;;;;;;;;6139743;23;20017;-78
2023/05/29 05:30:44;;;;;;;0.00;0.00;;;;;;;;;;6140018;23;20196;-77
2023/05/29 05:33:30;;;;;;;0.05;0.05;;;;;;;;;;6161699;23;20210;-78
2023/05/29 05:36:16;;;;;;;0.10;0.10;;;;;;;;;;6138139;23;20020;-80
2023/05/29 05:39:05;;;;;;;0.10;0.10;;;;;;;;;;6139539;23;20116;-79
2023/05/29 05:41:51;;;;;;;0.05;0.05;;;;;;;;;;6140048;23;20017;-78
2023/05/29 05:44:52;;;;;;;0.10;0.10;;;;;;;;;;6139511;23;20100;-77
2023/05/29 05:47:38;;;;;;;0.10;0.10;;;;;;;;;;6139591;23;20430;-78
2023/05/29 05:50:25;;;;;;;0.10;0.10;;;;;;;;;;6139004;23;20286;-80
2023/05/29 05:53:11;;;;;;;0.08;0.08;;;;;;;;;;6136241;23;20426;-79
2023/05/29 05:55:57;;;;;;;0.10;0.10;;;;;;;;;;6139386;23;20513;-78
2023/05/29 05:58:44;;;;;;;0.10;0.10;;;;;;;;;;6158963;23;20100;-79
2023/05/29 06:01:31;;;;;;;0.10;0.10;;;;;;;;;;6137542;23;20086;-79
2023/05/29 06:04:18;;;;;;;0.10;0.10;;;;;;;;;;6138151;23;20020;-80
2023/05/29 06:07:04;;;;;;;0.00;0.00;;;;;;;;;;6138228;23;20108;-79
2023/05/29 06:09:50;;;;;;;0.10;0.10;;;;;;;;;;6138902;23;20052;-79
2023/05/29 06:12:36;;;;;;;0.00;0.00;;;;;;;;;;6158000;23;20318;-78
2023/05/29 06:15:32;;;;;;;0.15;0.10;;;;;;;;;;6139211;23;20766;-79
2023/05/29 06:18:18;;;;;;;0.10;0.10;;;;;;;;;;6135954;23;20450;-79
2023/05/29 06:21:04;;;;;;;0.15;0.15;;;;;;;;;;6158682;23;20436;-78
2023/05/29 06:23:53;;;;;;;0.10;0.10;;;;;;;;;;6139070;23;20316;-79
2023/05/29 06:26:39;;;;;;;0.10;0.10;;;;;;;;;;6099535;23;20017;-79
2023/05/29 06:29:30;;;;;;;0.10;0.10;;;;;;;;;;6138270;23;20343;-78
2023/05/29 06:32:16;;;;;;;0.10;0.10;;;;;;;;;;6116381;23;20098;-76
2023/05/29 06:35:02;;;;;;;0.00;0.00;;;;;;;;;;6136266;23;20009;-76
2023/05/29 06:37:48;;;;;;;0.15;0.10;;;;;;;;;;6140133;23;20496;-76
2023/05/29 06:40:34;;;;;;;0.10;0.10;;;;;;;;;;6118088;23;20021;-76
2023/05/29 06:43:20;;;;;;;0.10;0.10;;;;;;;;;;6138761;23;20013;-75
2023/05/29 06:46:08;;;;;;;0.10;0.10;;;;;;;;;;6138867;23;20290;-76
2023/05/29 06:48:53;;;;;;;0.10;0.10;;;;;;;;;;6157969;23;20059;-75
2023/05/29 06:51:42;;;;;;;0.10;0.10;;;;;;;;;;6138691;23;20024;-75
2023/05/29 06:54:54;;;;;;;0.10;0.10;;;;;;;;;;6157571;23;20013;-76
2023/05/29 06:57:40;;;;;;;0.10;0.10;;;;;;;;;;6139143;23;20024;-76
2023/05/29 07:00:27;;;;;;;0.00;0.00;;;;;;;;;;6138198;23;20147;-76
2023/05/29 07:03:33;;;;;;;0.10;0.10;;;;;;;;;;6159040;23;20093;-76
2023/05/29 07:06:20;;;;;;;0.10;0.10;;;;;;;;;;6140170;23;20044;-76
2023/05/29 07:09:07;;;;;;;0.10;0.10;;;;;;;;;;6137422;23;20032;-76
2023/05/29 07:11:54;;;;;;;0.10;0.10;;;;;;;;;;6140911;23;20031;-75
2023/05/29 07:14:40;;;;;;;0.00;0.00;;;;;;;;;;6139639;23;20506;-75
2023/05/29 07:17:26;;;;;;;0.10;0.10;;;;;;;;;;6137575;23;20338;-76
2023/05/29 07:20:23;;;;;;;0.10;0.10;;;;;;;;;;6140925;23;20465;-76
2023/05/29 07:23:08;;;;;;;0.10;0.10;;;;;;;;;;6140153;23;20009;-76
2023/05/29 07:25:55;;;;;;;0.10;0.10;;;;;;;;;;6140839;23;20490;-76
2023/05/29 07:28:43;;;;;;;0.10;0.10;;;;;;;;;;6139213;23;20009;-76
2023/05/29 07:31:29;;;;;;;0.10;0.10;;;;;;;;;;6136957;23;20075;-76
2023/05/29 07:34:16;;;;;;;0.00;0.00;;;;;;;;;;6138938;23;20037;-76
2023/05/29 07:37:04;;;;;;;0.10;0.10;;;;;;;;;;6139041;23;20051;-76
2023/05/29 07:39:52;;;;;;;0.08;0.08;;;;;;;;;;6141315;23;20013;-76
2023/05/29 07:42:56;;;;;;;0.10;0.10;;;;;;;;;;6160418;23;20027;-76
2023/05/29 07:45:44;;;;;;;0.00;0.00;;;;;;;;;;6139408;23;20264;-77
2023/05/29 07:48:30;;;;;;;0.10;0.10;;;;;;;;;;6140947;23;20052;-75
2023/05/29 07:51:17;;;;;;;0.10;0.10;;;;;;;;;;6140778;23;20020;-75
2023/05/29 07:54:06;;;;;;;0.10;0.10;;;;;;;;;;6141627;23;20013;-76
2023/05/29 07:56:51;;;;;;;0.10;0.10;;;;;;;;;;6143245;23;20081;-76
2023/05/29 07:59:41;;;;;;;0.10;0.10;;;;;;;;;;6140815;23;20045;-75
2023/05/29 08:02:26;;;;;;;0.08;0.08;;;;;;;;;;6142072;23;20025;-76
2023/05/29 08:05:35;;;;;;;0.10;0.10;;;;;;;;;;6166547;23;20291;-76
2023/05/29 08:08:27;;;;;;;0.10;0.10;;;;;;;;;;6140649;23;20071;-75
2023/05/29 08:11:13;;;;;;;0.10;0.10;;;;;;;;;;6142674;23;20029;-76
2023/05/29 08:14:00;;;;;;;0.10;0.10;;;;;;;;;;6140036;23;20048;-75
2023/05/29 08:16:48;;;;;;;0.10;0.10;;;;;;;;;;6143890;23;20013;-77
2023/05/29 08:19:35;;;;;;;0.10;0.10;;;;;;;;;;6140902;23;20817;-78
2023/05/29 08:22:22;;;;;;;0.00;0.00;;;;;;;;;;6163220;23;20422;-77
2023/05/29 08:25:08;;;;;;;0.10;0.10;;;;;;;;;;6165911;23;20587;-77
2023/05/29 08:27:53;;;;;;;0.10;0.10;;;;;;;;;;6103344;23;20021;-79
2023/05/29 08:30:39;;;;;;;0.10;0.10;;;;;;;;;;6162938;23;20222;-78
2023/05/29 08:33:25;;;;;;;0.00;0.00;;;;;;;;;;6162499;23;20013;-78
2023/05/29 08:36:10;;;;;;;0.10;0.10;;;;;;;;;;6162754;23;20016;-78
2023/05/29 08:38:56;;;;;;;0.10;0.10;;;;;;;;;;6162486;23;20017;-78
2023/05/29 08:41:45;;;;;;;0.10;0.10;;;;;;;;;;6163926;23;20092;-77
2023/05/29 08:44:34;;;;;;;0.00;0.00;;;;;;;;;;6164111;23;20024;-78
2023/05/29 08:47:21;;;;;;;0.10;0.10;;;;;;;;;;6162007;23;20013;-78
2023/05/29 08:50:07;;;;;;;0.10;0.10;;;;;;;;;;6162906;23;20047;-77
2023/05/29 08:52:53;;;;;;;0.10;0.10;;;;;;;;;;6163721;23;20027;-78
2023/05/29 08:55:39;;;;;;;0.10;0.10;;;;;;;;;;6162856;23;20016;-78
2023/05/29 08:58:25;;;;;;;0.10;0.10;;;;;;;;;;6162277;23;20013;-78
2023/05/29 09:01:12;;;;;;;0.10;0.10;;;;;;;;;;6162977;23;20056;-77
2023/05/29 09:03:58;;;;;;;0.10;0.10;;;;;;;;;;6162269;23;20103;-77
2023/05/29 09:06:44;;;;;;;0.10;0.10;;;;;;;;;;6141649;23;20068;-77
2023/05/29 09:09:31;;;;;;;0.10;0.10;;;;;;;;;;6168265;23;20080;-78
2023/05/29 09:12:17;;;;;;;0.10;0.10;;;;;;;;;;6164105;23;20088;-78
2023/05/29 09:15:07;;;;;;;0.10;0.10;;;;;;;;;;6161835;23;20431;-78
2023/05/29 09:17:54;;;;;;;0.10;0.10;;;;;;;;;;6163580;23;20024;-78
2023/05/29 09:20:40;;;;;;;0.10;0.10;;;;;;;;;;6164263;23;20303;-78
2023/05/29 09:23:25;;;;;;;0.10;0.10;;;;;;;;;;6140145;23;20124;-78
2023/05/29 09:26:13;;;;;;;0.10;0.10;;;;;;;;;;6139475;23;20426;-78
2023/05/29 09:28:59;;;;;;;0.10;0.10;;;;;;;;;;6163015;23;20462;-79
2023/05/29 09:31:48;;;;;;;0.10;0.10;;;;;;;;;;6161848;23;20025;-77
2023/05/29 09:34:34;;;;;;;0.03;0.03;;;;;;;;;;6163611;23;20587;-78
2023/05/29 09:37:22;;;;;;;0.10;0.10;;;;;;;;;;6163107;23;20013;-78
2023/05/29 09:40:10;;;;;;;0.10;0.10;;;;;;;;;;6161169;23;20013;-78
2023/05/29 09:43:02;;;;;;;0.10;0.10;;;;;;;;;;6162568;23;20320;-78
2023/05/29 09:45:49;;;;;;;0.10;0.10;;;;;;;;;;6163524;23;20023;-78
2023/05/29 09:48:37;;;;;;;0.10;0.10;;;;;;;;;;6163387;23;20270;-78
2023/05/29 09:51:23;;;;;;;0.10;0.10;;;;;;;;;;6162158;23;20086;-78
2023/05/29 09:54:16;;;;;;;0.08;0.08;;;;;;;;;;6160928;23;20016;-78
2023/05/29 09:57:03;;;;;;;0.10;0.10;;;;;;;;;;6162926;23;20017;-78
2023/05/29 09:59:53;;;;;;;0.10;0.10;;;;;;;;;;6163433;23;20013;-77
2023/05/29 10:02:40;;;;;;;0.10;0.10;;;;;;;;;;6164226;23;20638;-78
2023/05/29 10:05:25;;;;;;;0.15;0.15;;;;;;;;;;6162570;23;20088;-78
2023/05/29 10:08:15;;;;;;;0.20;0.20;;;;;;;;;;6162280;23;20191;-79
2023/05/29 10:11:03;;;;;;;0.10;0.10;;;;;;;;;;6163191;23;20064;-78
2023/05/29 10:13:50;;;;;;;0.05;0.05;;;;;;;;;;6143142;23;20024;-78
2023/05/29 10:16:41;;;;;;;0.00;0.00;;;;;;;;;;6164952;23;20427;-77
2023/05/29 10:19:29;;;;;;;0.10;0.10;;;;;;;;;;6163603;23;20024;-77
2023/05/29 10:22:16;;;;;;;0.10;0.10;;;;;;;;;;6164412;23;20892;-78
2023/05/29 10:25:02;;;;;;;0.03;0.03;;;;;;;;;;6163247;23;20095;-77
2023/05/29 10:27:48;;;;;;;0.10;0.10;;;;;;;;;;6163442;23;20068;-77
2023/05/29 10:30:36;;;;;;;0.00;0.00;;;;;;;;;;6164507;23;20096;-78
2023/05/29 10:33:40;;;;;;;0.00;0.00;;;;;;;;;;6163072;23;20017;-78
2023/05/29 10:36:30;;;;;;;0.10;0.10;;;;;;;;;;6163450;23;20243;-78
2023/05/29 10:39:16;;;;;;;0.00;0.00;;;;;;;;;;6162772;23;20927;-77
2023/05/29 10:42:02;;;;;;;0.10;0.10;;;;;;;;;;6163492;23;20477;-78
2023/05/29 10:44:47;;;;;;;0.10;0.10;;;;;;;;;;6163526;23;20021;-77
2023/05/29 10:47:33;;;;;;;0.10;0.10;;;;;;;;;;6143744;23;20024;-77
2023/05/29 10:50:35;;;;;;;0.10;0.10;;;;;;;;;;6143027;23;20017;-77
2023/05/29 10:53:25;;;;;;;0.10;0.10;;;;;;;;;;6163296;23;20025;-78
2023/05/29 10:56:15;;;;;;;0.10;0.10;;;;;;;;;;6165183;23;20017;-77
2023/05/29 10:59:01;;;;;;;0.10;0.10;;;;;;;;;;6163657;23;20764;-78
2023/05/29 11:01:52;;;;;;;0.10;0.10;;;;;;;;;;6147678;23;20362;-77
2023/05/29 11:04:41;;;;;;;0.10;0.10;;;;;;;;;;6164910;23;20731;-77
2023/05/29 11:07:34;;;;;;;0.10;0.10;;;;;;;;;;6163678;23;20080;-78
2023/05/29 11:10:38;;;;;;;0.08;0.08;;;;;;;;;;6164444;23;20127;-78
2023/05/29 11:13:25;;;;;;;0.10;0.10;;;;;;;;;;6165500;23;20119;-77
2023/05/29 11:16:12;;;;;;;0.00;0.00;;;;;;;;;;6163369;23;20047;-77
2023/05/29 11:18:58;;;;;;;0.10;0.10;;;;;;;;;;6164005;23;20023;-77
2023/05/29 11:21:52;;;;;;;0.10;0.10;;;;;;;;;;6166074;23;20017;-77
2023/05/29 11:24:39;;;;;;;0.20;0.17;;;;;;;;;;6165023;23;20009;-77
2023/05/29 11:27:25;;;;;;;0.10;0.10;;;;;;;;;;6164418;23;20092;-77
2023/05/29 11:30:11;;;;;;;0.10;0.10;;;;;;;;;;6163740;23;20437;-77
2023/05/29 11:32:59;;;;;;;0.10;0.10;;;;;;;;;;6165121;23;20461;-77
2023/05/29 11:35:46;;;;;;;0.00;0.00;;;;;;;;;;6165278;23;20013;-78
2023/05/29 11:38:31;;;;;;;0.08;0.08;;;;;;;;;;6162629;23;20012;-77
2023/05/29 11:41:17;;;;;;;0.00;0.00;;;;;;;;;;6163101;23;20024;-78
2023/05/29 11:44:05;;;;;;;0.00;0.00;;;;;;;;;;6165083;23;20013;-78
2023/05/29 11:47:04;;;;;;;0.10;0.10;;;;;;;;;;6144919;23;20024;-78
2023/05/29 11:49:49;;;;;;;0.10;0.10;;;;;;;;;;6144799;23;20017;-77
2023/05/29 11:52:44;;;;;;;0.00;0.00;;;;;;;;;;6148368;23;20108;-77
2023/05/29 11:55:30;;;;;;;0.00;0.00;;;;;;;;;;6169779;23;20069;-77
2023/05/29 11:58:20;;;;;;;0.10;0.10;;;;;;;;;;6141293;23;20052;-78
2023/05/29 12:01:07;;;;;;;0.10;0.10;;;;;;;;;;6165308;23;20021;-78
2023/05/29 12:03:53;;;;;;;0.10;0.10;;;;;;;;;;6164806;23;20445;-77
2023/05/29 12:06:39;;;;;;;0.10;0.10;;;;;;;;;;6164875;23;20064;-77
2023/05/29 12:09:26;;;;;;;0.10;0.10;;;;;;;;;;6163799;23;20021;-77
2023/05/29 12:12:12;;;;;;;0.00;0.00;;;;;;;;;;6164624;23;20567;-78
2023/05/29 12:14:58;;;;;;;0.10;0.10;;;;;;;;;;6163040;23;20092;-78
2023/05/29 12:17:44;;;;;;;0.10;0.10;;;;;;;;;;6164763;23;20013;-77
2023/05/29 12:20:30;;;;;;;0.10;0.10;;;;;;;;;;6165393;23;20502;-77
2023/05/29 12:23:20;;;;;;;0.00;0.00;;;;;;;;;;6163481;23;20804;-78
2023/05/29 12:26:06;;;;;;;0.10;0.10;;;;;;;;;;6165079;23;20457;-78
2023/05/29 12:28:52;;;;;;;0.00;0.00;;;;;;;;;;6163490;23;20017;-78
2023/05/29 12:31:39;;;;;;;0.00;0.00;;;;;;;;;;6142167;23;20725;-78
2023/05/29 12:34:24;;;;;;;0.00;0.00;;;;;;;;;;6162818;23;20013;-78
2023/05/29 12:37:13;;;;;;;0.00;0.00;;;;;;;;;;6165679;23;20009;-77
2023/05/29 12:40:08;;;;;;;0.10;0.10;;;;;;;;;;6164477;23;20013;-78
2023/05/29 12:42:58;;;;;;;0.10;0.10;;;;;;;;;;6164667;23;20075;-77
2023/05/29 12:45:44;;;;;;;0.10;0.10;;;;;;;;;;6164185;23;20016;-78
2023/05/29 12:48:30;;;;;;;0.10;0.10;;;;;;;;;;6163546;23;20213;-78
2023/05/29 12:51:17;;;;;;;0.00;0.00;;;;;;;;;;6163927;23;20313;-78
2023/05/29 12:54:03;;;;;;;0.00;0.00;;;;;;;;;;6165232;23;20017;-77
2023/05/29 12:56:51;;;;;;;0.10;0.10;;;;;;;;;;6127900;23;20017;-77
2023/05/29 12:59:37;;;;;;;0.10;0.10;;;;;;;;;;6164099;23;20152;-77
2023/05/29 13:02:23;;;;;;;0.10;0.10;;;;;;;;;;6163652;23;20087;-77
2023/05/29 13:05:09;;;;;;;0.10;0.10;;;;;;;;;;6165813;23;20017;-77
2023/05/29 13:07:55;;;;;;;0.00;0.00;;;;;;;;;;6143798;23;20052;-77
2023/05/29 13:10:41;;;;;;;0.00;0.00;;;;;;;;;;6163419;23;20021;-78
2023/05/29 13:13:26;;;;;;;0.00;0.00;;;;;;;;;;6162453;23;20115;-78
2023/05/29 13:16:12;;;;;;;0.00;0.00;;;;;;;;;;6141905;23;20024;-78
2023/05/29 13:18:58;;;;;;;0.00;0.00;;;;;;;;;;6162955;23;20015;-77
2023/05/29 13:21:48;;;;;;;0.00;0.00;;;;;;;;;;6163671;23;20029;-77
2023/05/29 13:24:33;;;;;;;0.00;0.00;;;;;;;;;;6164641;23;20374;-78
2023/05/29 13:27:19;;;;;;;0.20;0.20;;;;;;;;;;6162511;23;20405;-78
2023/05/29 13:30:05;;;;;;;0.13;0.13;;;;;;;;;;6165193;23;20398;-78
2023/05/29 13:32:52;;;;;;;0.10;0.10;;;;;;;;;;6164917;23;20023;-78
2023/05/29 13:35:38;;;;;;;0.10;0.10;;;;;;;;;;6163716;23;20013;-78
2023/05/29 13:38:24;;;;;;;0.10;0.10;;;;;;;;;;6164433;23;20013;-77
2023/05/29 13:41:09;;;;;;;0.10;0.10;;;;;;;;;;6164174;23;20100;-78
2023/05/29 13:43:55;;;;;;;0.00;0.00;;;;;;;;;;6165333;23;20016;-78
2023/05/29 13:46:41;;;;;;;0.00;0.00;;;;;;;;;;6163892;23;20091;-78
2023/05/29 13:49:27;;;;;;;0.00;0.00;;;;;;;;;;6163867;23;20017;-78
2023/05/29 13:52:16;;;;;;;0.00;0.00;;;;;;;;;;6162271;23;20024;-78
2023/05/29 13:55:08;;;;;;;0.10;0.10;;;;;;;;;;6162790;23;20016;-79
2023/05/29 13:57:53;;;;;;;0.10;0.10;;;;;;;;;;6163254;23;20009;-78
2023/05/29 14:00:39;;;;;;;0.00;0.00;;;;;;;;;;6163928;23;20802;-78
2023/05/29 14:03:28;;;;;;;0.00;0.00;;;;;;;;;;6162402;23;20035;-78
2023/05/29 14:06:14;;;;;;;0.00;0.00;;;;;;;;;;6163970;23;20024;-78
2023/05/29 14:08:59;;;;;;;0.00;0.00;;;;;;;;;;6161889;23;20021;-78
2023/05/29 14:11:45;;;;;;;0.00;0.00;;;;;;;;;;6162585;23;20057;-79
2023/05/29 14:14:32;;;;;;;0.00;0.00;;;;;;;;;;6165204;23;20017;-77
2023/05/29 14:17:18;;;;;;;0.00;0.00;;;;;;;;;;6145035;23;20009;-77
2023/05/29 14:20:08;;;;;;;0.10;0.10;;;;;;;;;;6166084;23;20761;-79
2023/05/29 14:22:55;;;;;;;0.05;0.05;;;;;;;;;;6167294;23;20048;-78
2023/05/29 14:25:41;;;;;;;0.00;0.00;;;;;;;;;;6166783;23;20063;-78
2023/05/29 14:28:27;;;;;;;0.00;0.00;;;;;;;;;;6147043;23;20020;-77
2023/05/29 14:31:12;;;;;;;0.00;0.00;;;;;;;;;;6166211;23;20024;-78
2023/05/29 14:33:58;;;;;;;0.00;0.00;;;;;;;;;;6165685;23;20079;-77
2023/05/29 14:36:44;;;;;;;0.00;0.00;;;;;;;;;;6168112;23;20017;-78
2023/05/29 14:39:30;;;;;;;0.10;0.10;;;;;;;;;;6168167;23;20088;-78
2023/05/29 14:42:16;;;;;;;0.00;0.00;;;;;;;;;;6166458;23;20017;-78
2023/05/29 14:45:01;;;;;;;0.00;0.00;;;;;;;;;;6166037;23;20464;-77
2023/05/29 14:47:47;;;;;;;0.10;0.10;;;;;;;;;;6167794;23;20024;-78
2023/05/29 14:50:33;;;;;;;0.10;0.10;;;;;;;;;;6165982;23;20019;-78
2023/05/29 14:53:20;;;;;;;0.10;0.10;;;;;;;;;;6165084;23;20097;-78
2023/05/29 14:56:06;;;;;;;0.05;0.05;;;;;;;;;;6164957;23;20067;-78
2023/05/29 14:58:52;;;;;;;0.10;0.10;;;;;;;;;;6168393;23;20013;-78
2023/05/29 15:01:37;;;;;;;0.10;0.10;;;;;;;;;;6165998;23;20071;-78
2023/05/29 15:04:23;;;;;;;0.10;0.10;;;;;;;;;;6165000;23;20390;-78
2023/05/29 15:07:09;;;;;;;0.00;0.00;;;;;;;;;;6165211;23;20804;-78
2023/05/29 15:09:55;;;;;;;0.08;0.00;;;;;;;;;;6166659;23;20052;-78
2023/05/29 15:12:41;;;;;;;0.10;0.10;;;;;;;;;;6165558;23;20413;-78
2023/05/29 15:15:27;;;;;;;0.05;0.05;;;;;;;;;;6163925;23;20017;-78
2023/05/29 15:18:12;;;;;;;0.00;0.00;;;;;;;;;;6146691;23;20106;-78
2023/05/29 15:20:58;;;;;;;0.00;0.00;;;;;;;;;;6166174;23;20023;-78
2023/05/29 15:23:44;;;;;;;0.00;0.00;;;;;;;;;;6167600;23;20048;-78
2023/05/29 15:26:30;;;;;;;0.00;0.00;;;;;;;;;;6165329;23;20041;-77
2023/05/29 15:29:15;;;;;;;0.00;0.00;;;;;;;;;;6165242;23;20091;-77
2023/05/29 15:32:01;;;;;;;0.10;0.10;;;;;;;;;;6142655;23;20099;-78
2023/05/29 15:34:47;;;;;;;0.00;0.00;;;;;;;;;;6140920;23;20021;-78
2023/05/29 15:37:33;;;;;;;0.00;0.00;;;;;;;;;;6164702;23;20040;-77
2023/05/29 15:40:19;;;;;;;0.00;0.00;;;;;;;;;;6164366;23;20040;-78
2023/05/29 15:43:04;;;;;;;0.03;0.03;;;;;;;;;;6164473;23;20044;-78
2023/05/29 15:45:50;;;;;;;0.00;0.00;;;;;;;;;;6143710;23;20028;-78
2023/05/29 15:48:36;;;;;;;0.00;0.00;;;;;;;;;;6165931;23;20021;-78
2023/05/29 15:51:21;;;;;;;0.00;0.00;;;;;;;;;;6163653;23;20075;-77
2023/05/29 15:54:07;;;;;;;0.00;0.00;;;;;;;;;;6165299;23;20163;-78
2023/05/29 15:56:53;;;;;;;0.00;0.00;;;;;;;;;;6164847;23;20020;-77
2023/05/29 15:59:39;;;;;;;0.00;0.00;;;;;;;;;;6164060;23;20121;-77
2023/05/29 16:02:24;;;;;;;0.10;0.03;;;;;;;;;;6145786;23;20017;-77
2023/05/29 16:05:10;;;;;;;0.00;0.00;;;;;;;;;;6164598;23;20016;-78
2023/05/29 16:07:56;;;;;;;0.00;0.00;;;;;;;;;;6164936;23;20379;-77
2023/05/29 16:10:42;;;;;;;0.00;0.00;;;;;;;;;;6163180;23;20013;-77
2023/05/29 16:13:29;;;;;;;0.08;0.08;;;;;;;;;;6165469;23;20017;-77
2023/05/29 16:16:16;;;;;;;0.00;0.00;;;;;;;;;;6143628;23;20079;-77
2023/05/29 16:19:03;;;;;;;0.10;0.10;;;;;;;;;;6165971;23;20494;-78
2023/05/29 16:21:49;;;;;;;0.03;0.03;;;;;;;;;;6167230;23;20020;-78
2023/05/29 16:24:35;;;;;;;0.10;0.10;;;;;;;;;;6165998;23;20021;-78
2023/05/29 16:27:20;;;;;;;0.00;0.00;;;;;;;;;;6165692;23;20039;-77
2023/05/29 16:30:09;;;;;;;0.00;0.00;;;;;;;;;;6167506;23;20084;-78
2023/05/29 16:32:55;;;;;;;0.03;0.03;;;;;;;;;;6165115;23;20024;-78
2023/05/29 16:35:41;;;;;;;0.00;0.00;;;;;;;;;;6167169;23;20020;-78
2023/05/29 16:38:26;;;;;;;0.00;0.00;;;;;;;;;;6165382;23;20623;-77
2023/05/29 16:41:12;;;;;;;0.00;0.00;;;;;;;;;;6164633;23;20076;-77
2023/05/29 16:43:58;;;;;;;0.10;0.10;;;;;;;;;;6167135;23;20025;-77
2023/05/29 16:46:44;;;;;;;0.00;0.00;;;;;;;;;;6168778;23;20243;-78
2023/05/29 16:49:29;;;;;;;0.10;0.10;;;;;;;;;;6164851;23;20382;-78
2023/05/29 16:52:19;;;;;;;0.10;0.10;;;;;;;;;;6148212;23;20025;-78